Time;durP1;ratioP1;P1;durP2;ratioP2;P2;SDS_P1;SDS_P2;PMS_P1;PMS_P2;Temp;Humidity;BMP_temperature;BMP_pressure;BME280_temperature;BME280_humidity;BME280_pressure;Samples;Min_cycle;Max_cycle;Signal;HPM_P1;HPM_P2
2023/09/10 00:00:03;;;;;;;6.95;5.57;;;;;;;;;;5073769;28;20075;-42
2023/09/10 00:02:29;;;;;;;8.32;6.25;;;;;;;;;;5071228;28;21232;-47
2023/09/10 00:04:55;;;;;;;8.85;5.43;;;;;;;;;;5074251;28;20024;-45
2023/09/10 00:07:21;;;;;;;9.32;6.05;;;;;;;;;;5072659;28;20143;-47
2023/09/10 00:09:46;;;;;;;8.43;6.18;;;;;;;;;;5074418;28;20047;-41
2023/09/10 00:12:11;;;;;;;7.97;5.82;;;;;;;;;;5072925;28;20086;-43
2023/09/10 00:14:37;;;;;;;9.02;5.68;;;;;;;;;;5071698;28;20112;-45
2023/09/10 00:17:02;;;;;;;6.88;6.13;;;;;;;;;;5074701;28;20040;-46
2023/09/10 00:19:28;;;;;;;6.78;5.60;;;;;;;;;;5075119;28;20029;-47
2023/09/10 00:21:53;;;;;;;5.88;5.38;;;;;;;;;;5072251;28;20033;-41
2023/09/10 00:24:18;;;;;;;5.97;5.45;;;;;;;;;;5068942;28;20036;-42
2023/09/10 00:26:44;;;;;;;6.30;5.32;;;;;;;;;;5073719;28;20036;-43
2023/09/10 00:29:09;;;;;;;7.28;5.55;;;;;;;;;;5074567;28;20024;-48
2023/09/10 00:31:35;;;;;;;8.23;5.65;;;;;;;;;;5073348;28;20036;-42
2023/09/10 00:34:00;;;;;;;6.30;5.68;;;;;;;;;;5074209;28;20457;-43
2023/09/10 00:36:25;;;;;;;9.48;5.82;;;;;;;;;;5072243;28;20494;-45
2023/09/10 00:38:51;;;;;;;6.63;5.93;;;;;;;;;;5072448;28;20033;-44
2023/09/10 00:41:17;;;;;;;7.10;5.60;;;;;;;;;;5077919;28;20025;-41
2023/09/10 00:43:42;;;;;;;6.18;5.68;;;;;;;;;;5078220;28;20025;-49
2023/09/10 00:46:08;;;;;;;9.65;5.90;;;;;;;;;;5075269;28;20060;-43
2023/09/10 00:48:34;;;;;;;12.88;6.03;;;;;;;;;;5081781;28;20489;-45
2023/09/10 00:50:59;;;;;;;6.68;6.10;;;;;;;;;;5077715;28;20041;-45
2023/09/10 00:53:25;;;;;;;8.82;5.90;;;;;;;;;;5078080;28;20025;-42
2023/09/10 00:55:52;;;;;;;12.32;6.13;;;;;;;;;;5075807;28;20044;-44
2023/09/10 00:58:17;;;;;;;9.73;6.10;;;;;;;;;;5078405;28;20024;-41
2023/09/10 01:00:44;;;;;;;8.80;5.95;;;;;;;;;;5075292;28;20040;-46
2023/09/10 01:03:10;;;;;;;9.40;5.90;;;;;;;;;;5075706;28;20533;-44
2023/09/10 01:05:36;;;;;;;7.72;6.15;;;;;;;;;;5075885;28;20055;-42
2023/09/10 01:08:05;;;;;;;9.18;6.22;;;;;;;;;;5076678;28;20028;-44
2023/09/10 01:10:42;;;;;;;7.65;6.07;;;;;;;;;;5074346;28;20509;-44
2023/09/10 01:13:29;;;;;;;9.45;6.07;;;;;;;;;;5071062;28;20065;-42
2023/09/10 01:16:06;;;;;;;8.63;5.90;;;;;;;;;;5080336;28;20041;-43
2023/09/10 01:18:40;;;;;;;6.63;6.00;;;;;;;;;;5079139;28;20056;-42
2023/09/10 01:21:24;;;;;;;9.05;6.22;;;;;;;;;;5075297;28;20066;-41
2023/09/10 01:23:57;;;;;;;6.70;5.82;;;;;;;;;;5076468;28;20094;-43
2023/09/10 01:26:22;;;;;;;7.25;6.53;;;;;;;;;;5076536;28;20041;-43
2023/09/10 01:28:48;;;;;;;7.00;6.30;;;;;;;;;;5075165;28;20037;-45
2023/09/10 01:31:13;;;;;;;11.13;6.00;;;;;;;;;;5076004;28;20052;-47
2023/09/10 01:33:44;;;;;;;10.98;6.13;;;;;;;;;;5076594;28;20068;-44
2023/09/10 01:36:38;;;;;;;8.55;6.45;;;;;;;;;;5075537;28;20047;-46
2023/09/10 01:39:17;;;;;;;11.82;6.63;;;;;;;;;;5066949;28;20032;-43
2023/09/10 01:41:45;;;;;;;8.05;6.90;;;;;;;;;;5072620;28;20031;-41
2023/09/10 01:44:11;;;;;;;11.32;6.50;;;;;;;;;;5074494;28;20032;-43
2023/09/10 01:46:39;;;;;;;7.18;6.38;;;;;;;;;;5076448;28;20036;-47
2023/09/10 01:49:04;;;;;;;8.13;6.30;;;;;;;;;;5077274;28;20035;-44
2023/09/10 01:51:29;;;;;;;7.80;5.68;;;;;;;;;;5075208;28;20049;-44
2023/09/10 01:53:55;;;;;;;8.77;6.63;;;;;;;;;;5076509;28;20074;-41
2023/09/10 01:56:20;;;;;;;9.25;6.05;;;;;;;;;;5076685;28;20572;-42
2023/09/10 01:58:46;;;;;;;6.82;6.05;;;;;;;;;;5072675;28;20048;-42
2023/09/10 02:01:11;;;;;;;9.48;6.13;;;;;;;;;;5069083;28;20051;-42
2023/09/10 02:03:37;;;;;;;9.32;5.75;;;;;;;;;;5074582;28;20789;-46
2023/09/10 02:06:04;;;;;;;11.38;6.38;;;;;;;;;;5072089;28;20039;-46
2023/09/10 02:08:29;;;;;;;9.45;6.32;;;;;;;;;;5066661;28;20059;-46
2023/09/10 02:10:55;;;;;;;7.03;6.22;;;;;;;;;;5075179;28;20037;-43
2023/09/10 02:13:20;;;;;;;6.63;5.72;;;;;;;;;;5073029;28;20032;-44
2023/09/10 02:15:46;;;;;;;6.53;5.93;;;;;;;;;;5074521;28;20052;-41
2023/09/10 02:18:11;;;;;;;8.65;5.85;;;;;;;;;;5079327;28;20440;-42
2023/09/10 02:20:37;;;;;;;8.20;6.20;;;;;;;;;;5074890;28;20109;-45
2023/09/10 02:23:03;;;;;;;9.43;5.70;;;;;;;;;;5075482;28;20031;-41
2023/09/10 02:25:29;;;;;;;7.50;6.47;;;;;;;;;;5075885;28;20549;-42
2023/09/10 02:27:54;;;;;;;7.55;5.65;;;;;;;;;;5074870;28;20135;-42
2023/09/10 02:30:20;;;;;;;9.40;6.00;;;;;;;;;;5075418;28;20032;-43
2023/09/10 02:32:45;;;;;;;9.07;5.97;;;;;;;;;;5073512;28;20078;-45
2023/09/10 02:35:10;;;;;;;9.07;6.15;;;;;;;;;;5074717;28;20038;-42
2023/09/10 02:37:36;;;;;;;8.20;5.93;;;;;;;;;;5075818;28;20629;-43
2023/09/10 02:40:01;;;;;;;12.65;6.05;;;;;;;;;;5076121;28;20539;-41
2023/09/10 02:42:27;;;;;;;7.47;5.57;;;;;;;;;;5071081;28;20155;-46
2023/09/10 02:44:52;;;;;;;6.03;5.53;;;;;;;;;;5075538;28;20108;-42
2023/09/10 02:47:17;;;;;;;7.68;5.47;;;;;;;;;;5073494;28;20082;-47
2023/09/10 02:49:43;;;;;;;8.10;5.57;;;;;;;;;;5074909;28;20031;-45
2023/09/10 02:52:08;;;;;;;9.18;5.53;;;;;;;;;;5073298;28;20402;-49
2023/09/10 02:54:35;;;;;;;8.32;5.70;;;;;;;;;;5074800;28;20153;-41
2023/09/10 02:57:00;;;;;;;7.05;5.30;;;;;;;;;;5073384;28;20036;-46
2023/09/10 02:59:27;;;;;;;8.45;5.88;;;;;;;;;;5075637;28;20041;-45
2023/09/10 03:01:53;;;;;;;6.00;5.40;;;;;;;;;;5073886;28;20036;-44
2023/09/10 03:04:19;;;;;;;7.15;6.32;;;;;;;;;;5074380;28;20021;-43
2023/09/10 03:06:49;;;;;;;8.95;5.63;;;;;;;;;;5074971;28;20040;-44
2023/09/10 03:09:15;;;;;;;13.18;5.47;;;;;;;;;;5074616;28;20036;-44
2023/09/10 03:11:41;;;;;;;6.38;5.78;;;;;;;;;;5074510;28;20033;-44
2023/09/10 03:14:07;;;;;;;8.77;6.05;;;;;;;;;;5074939;28;20470;-43
2023/09/10 03:16:34;;;;;;;6.93;5.72;;;;;;;;;;5075013;28;20029;-43
2023/09/10 03:19:00;;;;;;;7.18;5.82;;;;;;;;;;5070388;28;20127;-43
2023/09/10 03:21:28;;;;;;;6.43;5.80;;;;;;;;;;5073432;28;20056;-46
2023/09/10 03:23:55;;;;;;;10.18;5.80;;;;;;;;;;5073518;28;20032;-42
2023/09/10 03:26:20;;;;;;;7.28;5.95;;;;;;;;;;5072397;28;20051;-42
2023/09/10 03:28:46;;;;;;;6.93;5.85;;;;;;;;;;5071306;28;20517;-44
2023/09/10 03:31:11;;;;;;;14.65;5.95;;;;;;;;;;5073495;28;20071;-43
2023/09/10 03:33:37;;;;;;;10.30;5.68;;;;;;;;;;5073163;28;20075;-43
2023/09/10 03:36:02;;;;;;;7.55;5.80;;;;;;;;;;5075152;28;20098;-47
2023/09/10 03:38:28;;;;;;;16.67;5.82;;;;;;;;;;5072959;28;20537;-43
2023/09/10 03:40:54;;;;;;;6.75;5.80;;;;;;;;;;5073298;28;20042;-44
2023/09/10 03:43:19;;;;;;;6.43;5.82;;;;;;;;;;5074419;28;20039;-42
2023/09/10 03:45:45;;;;;;;7.10;5.55;;;;;;;;;;5074867;28;20035;-43
2023/09/10 03:48:10;;;;;;;6.70;5.95;;;;;;;;;;5069834;28;20025;-42
2023/09/10 03:50:36;;;;;;;8.32;5.82;;;;;;;;;;5074267;28;20123;-45
2023/09/10 03:53:02;;;;;;;6.25;5.75;;;;;;;;;;5073925;28;20032;-42
2023/09/10 03:55:27;;;;;;;6.20;5.57;;;;;;;;;;5074974;28;20037;-44
2023/09/10 03:57:52;;;;;;;7.60;5.65;;;;;;;;;;5072365;28;20041;-41
2023/09/10 04:00:19;;;;;;;11.13;6.40;;;;;;;;;;5073153;28;20045;-42
2023/09/10 04:02:45;;;;;;;6.43;5.65;;;;;;;;;;5074421;28;20029;-45
2023/09/10 04:05:12;;;;;;;6.80;5.90;;;;;;;;;;5072354;28;20051;-42
2023/09/10 04:07:38;;;;;;;11.43;6.70;;;;;;;;;;5074593;28;20034;-43
2023/09/10 04:10:06;;;;;;;10.27;6.00;;;;;;;;;;5074195;28;20024;-41
2023/09/10 04:12:31;;;;;;;6.35;5.70;;;;;;;;;;5072883;28;20463;-44
2023/09/10 04:14:56;;;;;;;10.10;6.30;;;;;;;;;;5079433;28;20028;-45
2023/09/10 04:17:22;;;;;;;6.50;6.00;;;;;;;;;;5078102;28;20029;-43
2023/09/10 04:19:47;;;;;;;8.27;6.25;;;;;;;;;;5076548;28;20075;-45
2023/09/10 04:22:14;;;;;;;6.90;6.20;;;;;;;;;;5074957;28;20036;-44
2023/09/10 04:24:39;;;;;;;7.38;5.90;;;;;;;;;;5076730;28;20020;-44
2023/09/10 04:27:05;;;;;;;6.95;6.30;;;;;;;;;;5076401;28;20422;-43
2023/09/10 04:29:30;;;;;;;6.70;6.00;;;;;;;;;;5074998;28;20024;-46
2023/09/10 04:31:56;;;;;;;14.85;5.95;;;;;;;;;;5075809;28;20043;-44
2023/09/10 04:34:22;;;;;;;7.15;5.97;;;;;;;;;;5077761;28;20020;-47
2023/09/10 04:36:47;;;;;;;8.02;5.47;;;;;;;;;;5076520;28;20037;-46
2023/09/10 04:39:13;;;;;;;10.15;5.90;;;;;;;;;;5078097;28;20041;-44
2023/09/10 04:41:38;;;;;;;6.45;5.95;;;;;;;;;;5071271;28;20067;-44
2023/09/10 04:44:04;;;;;;;7.55;6.15;;;;;;;;;;5076830;28;20027;-43
2023/09/10 04:46:30;;;;;;;9.07;6.00;;;;;;;;;;5077929;28;20053;-45
2023/09/10 04:48:57;;;;;;;6.22;5.65;;;;;;;;;;5077216;28;20093;-44
2023/09/10 04:51:22;;;;;;;7.57;5.72;;;;;;;;;;5077628;28;20437;-45
2023/09/10 04:53:47;;;;;;;8.75;6.20;;;;;;;;;;5076409;28;20032;-46
2023/09/10 04:56:13;;;;;;;13.95;6.68;;;;;;;;;;5071381;28;20044;-47
2023/09/10 04:58:38;;;;;;;12.15;6.20;;;;;;;;;;5073436;28;20044;-41
2023/09/10 05:01:04;;;;;;;8.70;5.85;;;;;;;;;;5076988;28;20032;-44
2023/09/10 05:03:29;;;;;;;9.02;5.93;;;;;;;;;;5076484;28;20684;-43
2023/09/10 05:05:59;;;;;;;7.25;5.53;;;;;;;;;;5075639;28;20037;-44
2023/09/10 05:08:25;;;;;;;7.38;5.70;;;;;;;;;;5065847;28;20025;-41
2023/09/10 05:10:51;;;;;;;13.57;5.90;;;;;;;;;;5076208;28;20537;-43
2023/09/10 05:13:16;;;;;;;9.52;6.05;;;;;;;;;;5078332;28;20036;-43
2023/09/10 05:15:45;;;;;;;6.35;5.32;;;;;;;;;;5074271;28;20452;-42
2023/09/10 05:18:11;;;;;;;6.95;6.07;;;;;;;;;;5077225;28;20024;-45
2023/09/10 05:20:36;;;;;;;6.20;5.70;;;;;;;;;;5077698;28;20024;-45
2023/09/10 05:23:02;;;;;;;6.93;5.95;;;;;;;;;;5076393;28;20055;-44
2023/09/10 05:25:27;;;;;;;5.95;5.45;;;;;;;;;;5074565;28;20032;-42
2023/09/10 05:27:52;;;;;;;6.65;5.93;;;;;;;;;;5075307;28;20036;-42
2023/09/10 05:30:18;;;;;;;6.50;5.90;;;;;;;;;;5076052;28;20028;-45
2023/09/10 05:32:43;;;;;;;6.03;5.43;;;;;;;;;;5077271;28;20028;-48
2023/09/10 05:35:10;;;;;;;15.75;5.82;;;;;;;;;;5076166;28;20099;-44
2023/09/10 05:37:35;;;;;;;7.32;6.38;;;;;;;;;;5075481;28;20052;-42
2023/09/10 05:40:02;;;;;;;9.05;5.47;;;;;;;;;;5073893;28;20029;-42
2023/09/10 05:42:28;;;;;;;9.77;5.60;;;;;;;;;;5076924;28;20513;-44
2023/09/10 05:44:53;;;;;;;6.47;5.68;;;;;;;;;;5073642;28;20090;-44
2023/09/10 05:47:20;;;;;;;8.40;5.53;;;;;;;;;;5071812;28;20037;-42
2023/09/10 05:49:51;;;;;;;6.60;5.38;;;;;;;;;;5073676;28;20008;-48
2023/09/10 05:52:16;;;;;;;6.18;5.57;;;;;;;;;;5076628;28;20454;-45
2023/09/10 05:54:41;;;;;;;9.10;5.75;;;;;;;;;;5074473;28;20090;-43
2023/09/10 05:57:07;;;;;;;11.35;5.80;;;;;;;;;;5075616;28;20036;-43
2023/09/10 05:59:32;;;;;;;6.97;6.28;;;;;;;;;;5074589;28;20040;-44
2023/09/10 06:01:58;;;;;;;7.90;5.32;;;;;;;;;;5075960;28;20562;-42
2023/09/10 06:04:23;;;;;;;22.48;6.20;;;;;;;;;;5073576;28;20043;-45
2023/09/10 06:06:49;;;;;;;6.85;5.40;;;;;;;;;;5074404;28;20079;-44
2023/09/10 06:09:14;;;;;;;10.55;5.72;;;;;;;;;;5074613;28;20036;-45
2023/09/10 06:11:39;;;;;;;6.30;5.40;;;;;;;;;;5084640;28;20378;-44
2023/09/10 06:14:05;;;;;;;7.30;5.18;;;;;;;;;;5076388;28;20553;-44
2023/09/10 06:16:30;;;;;;;8.13;6.10;;;;;;;;;;5075873;28;20051;-42
2023/09/10 06:18:56;;;;;;;6.40;5.80;;;;;;;;;;5071593;28;20028;-46
2023/09/10 06:21:21;;;;;;;6.60;5.80;;;;;;;;;;5073119;28;20029;-47
2023/09/10 06:23:47;;;;;;;7.80;5.60;;;;;;;;;;5072895;28;20047;-43
2023/09/10 06:26:13;;;;;;;7.18;5.47;;;;;;;;;;5074681;28;20124;-44
2023/09/10 06:28:39;;;;;;;11.93;5.70;;;;;;;;;;5076465;28;20044;-42
2023/09/10 06:31:06;;;;;;;11.52;6.03;;;;;;;;;;5076312;28;20052;-47
2023/09/10 06:33:32;;;;;;;8.93;5.97;;;;;;;;;;5074495;28;20570;-46
2023/09/10 06:35:58;;;;;;;6.55;5.82;;;;;;;;;;5074082;28;20563;-44
2023/09/10 06:38:23;;;;;;;10.70;5.50;;;;;;;;;;5073750;28;20020;-43
2023/09/10 06:40:51;;;;;;;7.80;5.50;;;;;;;;;;5069583;28;20127;-45
2023/09/10 06:43:16;;;;;;;7.90;5.18;;;;;;;;;;5075061;28;20051;-44
2023/09/10 06:45:43;;;;;;;7.93;5.68;;;;;;;;;;5071097;28;20036;-44
2023/09/10 06:48:08;;;;;;;6.15;4.90;;;;;;;;;;5074384;28;20382;-42
2023/09/10 06:50:34;;;;;;;14.23;5.40;;;;;;;;;;5069448;28;20039;-45
2023/09/10 06:52:59;;;;;;;5.40;5.00;;;;;;;;;;5073600;28;20030;-43
2023/09/10 06:55:25;;;;;;;8.95;5.13;;;;;;;;;;5073583;28;20040;-43
2023/09/10 06:57:50;;;;;;;9.00;5.45;;;;;;;;;;5074819;28;20469;-43
2023/09/10 07:00:16;;;;;;;6.50;5.15;;;;;;;;;;5074437;28;20054;-43
2023/09/10 07:02:41;;;;;;;6.15;5.55;;;;;;;;;;5074612;28;20043;-43
2023/09/10 07:05:07;;;;;;;7.78;5.43;;;;;;;;;;5073157;28;20055;-44
2023/09/10 07:07:32;;;;;;;9.00;5.55;;;;;;;;;;5069622;28;20033;-47
2023/09/10 07:09:58;;;;;;;8.05;5.38;;;;;;;;;;5079585;28;20020;-41
2023/09/10 07:12:23;;;;;;;5.63;5.13;;;;;;;;;;5069058;28;20037;-46
2023/09/10 07:14:49;;;;;;;7.30;5.25;;;;;;;;;;5071316;28;20035;-42
2023/09/10 07:17:15;;;;;;;6.03;5.22;;;;;;;;;;5070272;28;20039;-42
2023/09/10 07:19:40;;;;;;;11.38;5.70;;;;;;;;;;5071585;28;20039;-45
2023/09/10 07:22:06;;;;;;;8.57;4.85;;;;;;;;;;5070228;28;20111;-45
2023/09/10 07:24:31;;;;;;;10.57;5.57;;;;;;;;;;5071822;28;20016;-43
2023/09/10 07:26:58;;;;;;;8.35;5.70;;;;;;;;;;5069088;28;20039;-47
2023/09/10 07:29:24;;;;;;;15.57;5.22;;;;;;;;;;5069597;28;20028;-44
2023/09/10 07:31:49;;;;;;;7.00;4.90;;;;;;;;;;5064540;28;20051;-43
2023/09/10 07:34:15;;;;;;;11.73;5.75;;;;;;;;;;5069977;28;20089;-43
2023/09/10 07:36:43;;;;;;;6.18;5.38;;;;;;;;;;5069022;28;20055;-42
2023/09/10 07:39:08;;;;;;;5.53;4.88;;;;;;;;;;5072010;28;20035;-44
2023/09/10 07:41:34;;;;;;;8.82;5.68;;;;;;;;;;5073090;28;20410;-44
2023/09/10 07:44:01;;;;;;;7.93;5.10;;;;;;;;;;5070024;28;20044;-42
2023/09/10 07:46:27;;;;;;;6.60;5.18;;;;;;;;;;5070941;28;20039;-43
2023/09/10 07:48:52;;;;;;;6.60;5.10;;;;;;;;;;5072197;28;20032;-43
2023/09/10 07:51:18;;;;;;;6.63;4.95;;;;;;;;;;5070986;28;20051;-45
2023/09/10 07:53:43;;;;;;;7.35;5.30;;;;;;;;;;5071032;28;20167;-45
2023/09/10 07:56:08;;;;;;;8.77;5.00;;;;;;;;;;5073932;28;20405;-45
2023/09/10 07:58:34;;;;;;;5.80;5.22;;;;;;;;;;5076626;28;20663;-44
2023/09/10 08:00:59;;;;;;;6.22;5.15;;;;;;;;;;5073230;28;20450;-42
2023/09/10 08:03:25;;;;;;;5.80;4.90;;;;;;;;;;5073101;28;20482;-46
2023/09/10 08:05:50;;;;;;;8.60;5.00;;;;;;;;;;5074305;28;20037;-45
2023/09/10 08:08:15;;;;;;;9.15;5.25;;;;;;;;;;5072075;28;20025;-45
2023/09/10 08:10:43;;;;;;;8.68;5.43;;;;;;;;;;5071047;28;20055;-42
2023/09/10 08:13:09;;;;;;;6.22;5.30;;;;;;;;;;5072146;28;20032;-42
2023/09/10 08:15:34;;;;;;;7.95;5.63;;;;;;;;;;5071320;28;20039;-47
2023/09/10 08:18:00;;;;;;;8.63;5.90;;;;;;;;;;5074263;28;20032;-47
2023/09/10 08:20:26;;;;;;;5.95;5.45;;;;;;;;;;5079713;28;20033;-45
2023/09/10 08:22:51;;;;;;;6.85;5.90;;;;;;;;;;5073049;28;20071;-43
2023/09/10 08:25:16;;;;;;;9.52;6.20;;;;;;;;;;5070721;28;20021;-43
2023/09/10 08:27:42;;;;;;;6.70;5.85;;;;;;;;;;5074748;28;20028;-44
2023/09/10 08:30:09;;;;;;;12.32;6.10;;;;;;;;;;5076117;28;20033;-45
2023/09/10 08:32:35;;;;;;;11.82;6.22;;;;;;;;;;5072267;28;20021;-48
2023/09/10 08:35:01;;;;;;;6.35;5.80;;;;;;;;;;5073978;28;20093;-43
2023/09/10 08:37:26;;;;;;;8.93;5.85;;;;;;;;;;5071469;28;20036;-44
2023/09/10 08:39:53;;;;;;;7.63;6.68;;;;;;;;;;5071686;28;20033;-45
2023/09/10 08:42:24;;;;;;;8.75;6.95;;;;;;;;;;5069212;28;20090;-47
2023/09/10 08:44:59;;;;;;;9.88;7.65;;;;;;;;;;5071076;28;20060;-45
2023/09/10 08:47:26;;;;;;;15.77;7.63;;;;;;;;;;5072692;28;20773;-43
2023/09/10 08:49:55;;;;;;;8.93;7.55;;;;;;;;;;5066297;28;20918;-43
2023/09/10 08:52:22;;;;;;;11.00;8.00;;;;;;;;;;5069885;28;20035;-43
2023/09/10 08:54:48;;;;;;;9.70;8.73;;;;;;;;;;5068267;28;20123;-47
2023/09/10 08:57:14;;;;;;;19.08;8.30;;;;;;;;;;5069183;28;20120;-43
2023/09/10 08:59:42;;;;;;;12.10;8.88;;;;;;;;;;5068427;28;20140;-44
2023/09/10 09:02:09;;;;;;;13.32;9.82;;;;;;;;;;5064542;28;22840;-46
2023/09/10 09:04:35;;;;;;;17.98;10.82;;;;;;;;;;5067101;28;20047;-46
2023/09/10 09:07:02;;;;;;;16.27;9.05;;;;;;;;;;5068302;28;20107;-44
2023/09/10 09:09:34;;;;;;;12.52;9.82;;;;;;;;;;5067173;28;20105;-45
2023/09/10 09:12:02;;;;;;;11.30;8.40;;;;;;;;;;5068001;28;20086;-45
2023/09/10 09:14:28;;;;;;;10.07;9.07;;;;;;;;;;5073854;28;20186;-45
2023/09/10 09:16:54;;;;;;;12.75;9.23;;;;;;;;;;5073075;28;20039;-45
2023/09/10 09:19:22;;;;;;;11.48;8.43;;;;;;;;;;5063182;28;20032;-48
2023/09/10 09:21:50;;;;;;;16.52;12.63;;;;;;;;;;5071586;28;20030;-48
2023/09/10 09:24:16;;;;;;;14.45;10.43;;;;;;;;;;5068420;28;20223;-43
2023/09/10 09:26:42;;;;;;;14.18;10.48;;;;;;;;;;5077735;28;20080;-46
2023/09/10 09:29:08;;;;;;;13.73;9.82;;;;;;;;;;5063888;28;20040;-45
2023/09/10 09:31:34;;;;;;;10.82;9.75;;;;;;;;;;5070624;28;20111;-45
2023/09/10 09:33:59;;;;;;;19.27;10.02;;;;;;;;;;5066076;28;20124;-45
2023/09/10 09:36:27;;;;;;;11.52;9.27;;;;;;;;;;5071776;28;20465;-42
2023/09/10 09:38:52;;;;;;;15.63;11.60;;;;;;;;;;5074835;28;20036;-46
2023/09/10 09:41:18;;;;;;;16.52;9.38;;;;;;;;;;5074085;28;20013;-44
2023/09/10 09:43:44;;;;;;;15.82;9.80;;;;;;;;;;5071004;28;20394;-45
2023/09/10 09:46:09;;;;;;;10.63;8.27;;;;;;;;;;5071054;28;20480;-43
2023/09/10 09:48:36;;;;;;;11.43;9.23;;;;;;;;;;5072493;28;20036;-45
2023/09/10 09:51:03;;;;;;;13.13;9.27;;;;;;;;;;5072815;28;20032;-46
2023/09/10 09:53:31;;;;;;;13.73;8.75;;;;;;;;;;5070774;28;20033;-44
2023/09/10 09:55:59;;;;;;;13.18;8.43;;;;;;;;;;5072080;28;20024;-46
2023/09/10 09:58:24;;;;;;;13.80;8.05;;;;;;;;;;5072037;28;20032;-47
2023/09/10 10:00:50;;;;;;;8.25;7.20;;;;;;;;;;5071295;28;20020;-46
2023/09/10 10:03:18;;;;;;;12.15;7.30;;;;;;;;;;5068910;28;20128;-44
2023/09/10 10:05:43;;;;;;;10.07;7.90;;;;;;;;;;5070365;28;20192;-45
2023/09/10 10:08:09;;;;;;;12.00;6.82;;;;;;;;;;5071521;28;20525;-47
2023/09/10 10:10:35;;;;;;;11.55;7.30;;;;;;;;;;5068012;28;20028;-46
2023/09/10 10:13:02;;;;;;;8.27;6.25;;;;;;;;;;5068082;28;20496;-45
2023/09/10 10:15:27;;;;;;;8.15;6.43;;;;;;;;;;5070233;28;20035;-45
2023/09/10 10:17:54;;;;;;;12.93;5.75;;;;;;;;;;5069095;28;20044;-45
2023/09/10 10:20:21;;;;;;;6.75;6.10;;;;;;;;;;5075082;28;20402;-46
2023/09/10 10:22:46;;;;;;;6.97;5.63;;;;;;;;;;5071814;28;20036;-45
2023/09/10 10:25:12;;;;;;;8.77;6.75;;;;;;;;;;5075448;28;20050;-44
2023/09/10 10:27:41;;;;;;;7.82;6.30;;;;;;;;;;5073896;28;20049;-46
2023/09/10 10:30:08;;;;;;;5.05;4.53;;;;;;;;;;5070776;28;20028;-45
2023/09/10 10:32:41;;;;;;;7.97;4.95;;;;;;;;;;5073014;28;20032;-45
2023/09/10 10:35:11;;;;;;;5.68;4.75;;;;;;;;;;5065758;28;20039;-48
2023/09/10 10:37:59;;;;;;;9.98;4.75;;;;;;;;;;5066210;28;20097;-48
2023/09/10 10:40:30;;;;;;;6.68;4.90;;;;;;;;;;5064652;28;20068;-47
2023/09/10 10:43:12;;;;;;;10.35;6.10;;;;;;;;;;5069393;28;20025;-46
2023/09/10 10:45:38;;;;;;;6.72;5.28;;;;;;;;;;5071073;28;20115;-48
2023/09/10 10:48:13;;;;;;;11.48;4.82;;;;;;;;;;5066251;28;27315;-46
2023/09/10 10:50:40;;;;;;;8.43;5.35;;;;;;;;;;5073051;28;20032;-45
2023/09/10 10:53:05;;;;;;;6.45;5.60;;;;;;;;;;5071165;28;20119;-50
2023/09/10 10:55:33;;;;;;;8.32;4.78;;;;;;;;;;5074519;28;20044;-46
2023/09/10 10:57:59;;;;;;;6.72;4.80;;;;;;;;;;5073531;28;20565;-45
2023/09/10 11:00:25;;;;;;;6.68;4.75;;;;;;;;;;5071024;28;20059;-48
2023/09/10 11:03:15;;;;;;;5.53;4.68;;;;;;;;;;5069550;28;20024;-43
2023/09/10 11:06:04;;;;;;;5.28;4.75;;;;;;;;;;5075297;28;20387;-43
2023/09/10 11:08:38;;;;;;;5.25;4.15;;;;;;;;;;5064602;28;20036;-46
2023/09/10 11:11:08;;;;;;;7.25;4.75;;;;;;;;;;5077638;28;20036;-47
2023/09/10 11:13:53;;;;;;;4.78;4.38;;;;;;;;;;5063473;28;20055;-46
2023/09/10 11:16:19;;;;;;;7.60;4.50;;;;;;;;;;5068601;28;20032;-45
2023/09/10 11:18:44;;;;;;;7.13;4.32;;;;;;;;;;5072610;28;20035;-49
2023/09/10 11:21:14;;;;;;;4.45;4.13;;;;;;;;;;5071269;28;20029;-48
2023/09/10 11:24:06;;;;;;;4.53;3.35;;;;;;;;;;5061308;28;20098;-45
2023/09/10 11:26:31;;;;;;;4.28;3.88;;;;;;;;;;5071469;28;20029;-47
2023/09/10 11:29:03;;;;;;;5.07;4.50;;;;;;;;;;5070644;28;20043;-46
2023/09/10 11:34:18;;;;;;;7.65;3.40;;;;;;;;;;5063138;28;20495;-46
2023/09/10 11:36:46;;;;;;;5.75;3.67;;;;;;;;;;5071729;28;20021;-44
2023/09/10 11:39:11;;;;;;;4.57;4.18;;;;;;;;;;5068176;28;20041;-45
2023/09/10 11:41:37;;;;;;;5.75;4.97;;;;;;;;;;5072954;28;20042;-47
2023/09/10 11:44:02;;;;;;;6.50;5.03;;;;;;;;;;5069218;28;20036;-46
2023/09/10 11:46:28;;;;;;;5.18;4.60;;;;;;;;;;5070586;28;20016;-45
2023/09/10 11:48:53;;;;;;;6.05;4.57;;;;;;;;;;5066704;28;20434;-45
2023/09/10 11:51:19;;;;;;;8.52;4.15;;;;;;;;;;5071894;28;20575;-47
2023/09/10 11:53:45;;;;;;;6.30;4.35;;;;;;;;;;5069873;28;20040;-45
2023/09/10 11:56:11;;;;;;;6.82;4.60;;;;;;;;;;5071322;28;20139;-48
2023/09/10 11:58:36;;;;;;;5.97;4.72;;;;;;;;;;5068746;28;20040;-46
2023/09/10 12:01:03;;;;;;;7.07;4.50;;;;;;;;;;5074175;28;20017;-45
2023/09/10 12:03:30;;;;;;;5.10;4.65;;;;;;;;;;5074427;28;20146;-45
2023/09/10 12:05:57;;;;;;;6.95;4.30;;;;;;;;;;5071672;28;20029;-45
2023/09/10 12:08:23;;;;;;;7.47;6.47;;;;;;;;;;5071385;28;20539;-47
2023/09/10 12:10:50;;;;;;;7.15;5.07;;;;;;;;;;5073521;28;20032;-45
2023/09/10 12:13:16;;;;;;;7.93;5.05;;;;;;;;;;5070036;28;20553;-46
2023/09/10 12:15:41;;;;;;;4.75;4.30;;;;;;;;;;5067907;28;20111;-45
2023/09/10 12:18:07;;;;;;;7.43;4.75;;;;;;;;;;5068052;28;20108;-44
2023/09/10 12:20:33;;;;;;;4.82;4.43;;;;;;;;;;5079597;28;20032;-49
2023/09/10 12:23:00;;;;;;;6.15;4.80;;;;;;;;;;5069077;28;20040;-44
2023/09/10 12:25:27;;;;;;;7.00;4.20;;;;;;;;;;5065180;28;20035;-45
2023/09/10 12:27:53;;;;;;;5.93;5.32;;;;;;;;;;5063885;28;20051;-47
2023/09/10 12:30:19;;;;;;;14.73;5.22;;;;;;;;;;5075847;28;20107;-44
2023/09/10 12:32:45;;;;;;;7.05;5.22;;;;;;;;;;5075110;28;20063;-45
2023/09/10 12:35:11;;;;;;;6.93;4.70;;;;;;;;;;5077149;28;20112;-45
2023/09/10 12:37:54;;;;;;;11.07;5.15;;;;;;;;;;5075998;28;20068;-48
2023/09/10 12:40:20;;;;;;;12.20;8.65;;;;;;;;;;5076366;28;20056;-46
2023/09/10 12:42:48;;;;;;;5.85;4.40;;;;;;;;;;5078469;28;20036;-49
2023/09/10 12:45:14;;;;;;;4.20;3.80;;;;;;;;;;5073695;28;20036;-49
2023/09/10 12:47:41;;;;;;;6.32;5.00;;;;;;;;;;5078324;28;20047;-49
2023/09/10 12:50:07;;;;;;;8.13;4.15;;;;;;;;;;5076537;28;20032;-49
2023/09/10 12:52:33;;;;;;;11.20;8.30;;;;;;;;;;5075694;28;20031;-47
2023/09/10 12:55:00;;;;;;;7.03;5.10;;;;;;;;;;5077751;28;20041;-46
2023/09/10 12:57:25;;;;;;;5.97;4.18;;;;;;;;;;5074869;28;20033;-47
2023/09/10 12:59:53;;;;;;;4.68;4.30;;;;;;;;;;5073120;28;20052;-49
2023/09/10 13:02:33;;;;;;;5.65;4.65;;;;;;;;;;5078485;28;20020;-45
2023/09/10 13:04:58;;;;;;;4.63;4.22;;;;;;;;;;5075534;28;20106;-48
2023/09/10 13:07:24;;;;;;;4.25;3.85;;;;;;;;;;5074003;28;20012;-48
2023/09/10 13:09:49;;;;;;;4.80;4.40;;;;;;;;;;5076252;28;20418;-45
2023/09/10 13:12:15;;;;;;;7.55;4.30;;;;;;;;;;5075175;28;20040;-48
2023/09/10 13:14:40;;;;;;;4.63;4.25;;;;;;;;;;5076822;28;20055;-47
2023/09/10 13:17:06;;;;;;;5.82;4.55;;;;;;;;;;5075222;28;20058;-45
2023/09/10 13:19:31;;;;;;;10.00;5.25;;;;;;;;;;5071197;28;20029;-47
2023/09/10 13:21:57;;;;;;;5.38;4.75;;;;;;;;;;5077779;28;20058;-49
2023/09/10 13:24:22;;;;;;;7.00;4.50;;;;;;;;;;5077151;28;20182;-44
2023/09/10 13:26:49;;;;;;;7.45;4.80;;;;;;;;;;5074203;28;20537;-44
2023/09/10 13:29:14;;;;;;;4.72;4.32;;;;;;;;;;5076149;28;20186;-50
2023/09/10 13:31:40;;;;;;;5.05;4.22;;;;;;;;;;5068918;28;20037;-46
2023/09/10 13:34:05;;;;;;;7.40;4.03;;;;;;;;;;5072965;28;20092;-46
2023/09/10 13:36:31;;;;;;;3.75;3.55;;;;;;;;;;5080657;28;20032;-44
2023/09/10 13:38:56;;;;;;;4.40;4.10;;;;;;;;;;5076140;28;20075;-48
2023/09/10 13:41:23;;;;;;;6.47;4.13;;;;;;;;;;5075674;28;20548;-46
2023/09/10 13:43:49;;;;;;;5.57;3.70;;;;;;;;;;5075658;28;20056;-46
2023/09/10 13:46:14;;;;;;;4.35;3.97;;;;;;;;;;5071169;28;20020;-44
2023/09/10 13:48:40;;;;;;;10.85;3.95;;;;;;;;;;5073445;28;20071;-46
2023/09/10 13:51:05;;;;;;;4.65;3.97;;;;;;;;;;5075992;28;20032;-43
2023/09/10 13:53:31;;;;;;;51.50;5.68;;;;;;;;;;5076814;28;20024;-48
2023/09/10 13:55:56;;;;;;;4.28;3.90;;;;;;;;;;5080693;28;20659;-36
2023/09/10 13:58:22;;;;;;;17.52;4.57;;;;;;;;;;5073486;28;20028;-40
2023/09/10 15:57:39;;;;;;;6.72;3.38;;;;;;;;;;4988574;27;20615;-63
2023/09/10 16:00:06;;;;;;;6.35;3.30;;;;;;;;;;5000444;28;20485;-63
2023/09/10 16:02:38;;;;;;;3.55;3.15;;;;;;;;;;5002215;28;20121;-63
2023/09/10 16:05:06;;;;;;;3.30;3.00;;;;;;;;;;5005869;28;20065;-61
2023/09/10 16:07:32;;;;;;;14.57;3.75;;;;;;;;;;5004986;28;20041;-63
2023/09/10 16:09:58;;;;;;;9.45;3.53;;;;;;;;;;4999367;28;20107;-64
2023/09/10 16:12:23;;;;;;;14.05;3.05;;;;;;;;;;5002411;28;20039;-62
2023/09/10 16:14:49;;;;;;;3.83;3.13;;;;;;;;;;5003695;28;20125;-63
2023/09/10 16:19:36;;;;;;;9.68;4.00;;;;;;;;;;5051197;27;20606;-67
2023/09/10 16:22:03;;;;;;;7.15;3.88;;;;;;;;;;5024039;28;20045;-67
2023/09/10 16:24:28;;;;;;;6.43;3.38;;;;;;;;;;5023740;28;20463;-70
2023/09/10 16:26:54;;;;;;;4.85;3.20;;;;;;;;;;5027579;28;20026;-71
2023/09/10 16:29:19;;;;;;;3.50;3.20;;;;;;;;;;5019465;28;20046;-71
2023/09/10 16:31:44;;;;;;;7.95;3.42;;;;;;;;;;5001122;28;20068;-70
2023/09/10 16:34:10;;;;;;;4.50;3.25;;;;;;;;;;5021150;28;20124;-71
2023/09/10 16:36:36;;;;;;;6.03;3.15;;;;;;;;;;5026879;28;20053;-72
2023/09/10 16:39:05;;;;;;;6.13;3.40;;;;;;;;;;5027816;28;20029;-69